createdAt,value
2018-09-05T00:00:11.844Z,101292.54
2018-09-05T00:02:39.945Z,101290.20
2018-09-05T00:05:08.066Z,101286.16
2018-09-05T00:07:36.320Z,101284.35
2018-09-05T00:10:04.440Z,101285.06
2018-09-05T00:12:32.494Z,101286.69
2018-09-05T00:15:00.612Z,101285.98
2018-09-05T00:17:28.659Z,101281.32
2018-09-05T00:19:56.863Z,101279.64
2018-09-05T00:22:24.901Z,101278.45
2018-09-05T00:24:52.960Z,101280.41
2018-09-05T00:27:21.023Z,101279.23
2018-09-05T00:29:49.067Z,101274.09
2018-09-05T00:32:17.132Z,101271.56
2018-09-05T00:34:45.223Z,101271.23
2018-09-05T00:37:13.282Z,101272.81
2018-09-05T00:39:41.681Z,101274.91
2018-09-05T00:42:09.715Z,101270.87
2018-09-05T00:44:37.815Z,101271.02
2018-09-05T00:47:05.864Z,101274.98
2018-09-05T00:49:33.917Z,101277.16
2018-09-05T00:52:01.960Z,101276.94
2018-09-05T00:54:29.998Z,101277.08
2018-09-05T00:56:58.196Z,101277.82
2018-09-05T00:59:26.252Z,101274.48
2018-09-05T01:01:54.286Z,101274.77
2018-09-05T01:04:22.360Z,101275.03
2018-09-05T01:06:50.381Z,101269.41
2018-09-05T01:09:18.438Z,101265.36
2018-09-05T01:11:46.476Z,101266.69
2018-09-05T01:14:14.503Z,101273.92
2018-09-05T01:16:42.720Z,101271.91
2018-09-05T01:19:10.757Z,101279.39
2018-09-05T01:21:38.814Z,101277.59
2018-09-05T01:24:07.207Z,101276.56
2018-09-05T01:26:35.227Z,101274.54
2018-09-05T01:29:03.251Z,101272.52
2018-09-05T01:31:31.289Z,101274.47
2018-09-05T01:33:59.325Z,101276.89
2018-09-05T01:36:27.355Z,101272.84
2018-09-05T01:38:55.388Z,101273.80
2018-09-05T01:41:23.576Z,101266.01
2018-09-05T01:43:51.621Z,101264.47
2018-09-05T01:46:19.642Z,101262.81
2018-09-05T01:48:47.673Z,101261.73
2018-09-05T01:51:15.709Z,101262.73
2018-09-05T01:53:43.748Z,101262.62
2018-09-05T01:56:11.789Z,101258.43
2018-09-05T01:58:39.812Z,101257.39
2018-09-05T02:01:07.891Z,101261.50
2018-09-05T02:03:35.948Z,101260.80
2018-09-05T02:06:04.719Z,101262.59
2018-09-05T02:08:32.810Z,101261.42
2018-09-05T02:11:00.784Z,101258.89
2018-09-05T02:13:28.820Z,101258.55
2018-09-05T02:15:56.865Z,101257.15
2018-09-05T02:18:24.900Z,101263.20
2018-09-05T02:20:52.943Z,101256.84
2018-09-05T02:23:20.969Z,101262.12
2018-09-05T02:25:49.009Z,101265.86
2018-09-05T02:28:17.037Z,101256.61
2018-09-05T02:30:45.069Z,101261.09
2018-09-05T02:33:13.106Z,101257.04
2018-09-05T02:35:41.144Z,101257.29
2018-09-05T02:38:09.164Z,101253.94
2018-09-05T02:40:37.218Z,101256.50
2018-09-05T02:43:05.248Z,101261.78
2018-09-05T02:45:33.277Z,101262.77
2018-09-05T02:48:01.310Z,101262.54
2018-09-05T02:50:29.355Z,101262.31
2018-09-05T02:52:57.416Z,101260.56
2018-09-05T02:55:30.794Z,101262.50
2018-09-05T02:57:58.847Z,101262.05
2018-09-05T03:00:26.892Z,101264.35
2018-09-05T03:02:54.971Z,101260.86
2018-09-05T03:05:23.035Z,101258.36
2018-09-05T03:07:51.067Z,101255.02
2018-09-05T03:10:19.110Z,101262.23
2018-09-05T03:12:47.168Z,101261.02
2018-09-05T03:15:15.197Z,101254.70
2018-09-05T03:17:43.248Z,101248.48
2018-09-05T03:20:11.331Z,101256.54
2018-09-05T03:22:39.371Z,101254.14
2018-09-05T03:27:46.853Z,101256.36
2018-09-05T03:30:14.895Z,101258.73
2018-09-05T03:32:43.079Z,101261.98
2018-09-05T03:35:10.996Z,101253.02
2018-09-05T03:37:39.049Z,101260.43
2018-09-05T03:40:07.104Z,101254.58
2018-09-05T03:42:35.181Z,101261.45
2018-09-05T03:45:03.231Z,101265.18
2018-09-05T03:47:31.263Z,101266.88
2018-09-05T03:49:59.312Z,101265.32
2018-09-05T03:52:27.384Z,101267.05
2018-09-05T03:54:55.437Z,101269.45
2018-09-05T03:57:23.493Z,101263.23
2018-09-05T03:59:51.532Z,101268.98
2018-09-05T04:02:19.561Z,101269.25
2018-09-05T04:04:47.608Z,101275.84
2018-09-05T04:07:15.638Z,101275.48
2018-09-05T04:09:43.669Z,101276.73
2018-09-05T04:12:11.771Z,101276.12
2018-09-05T04:14:39.764Z,101277.57
2018-09-05T04:17:08.031Z,101271.25
2018-09-05T04:19:36.063Z,101271.95
2018-09-05T04:22:04.848Z,101269.45
2018-09-05T04:24:32.972Z,101266.58
2018-09-05T04:27:01.020Z,101264.20
2018-09-05T04:29:29.167Z,101268.91
2018-09-05T04:31:57.100Z,101264.23
2018-09-05T04:34:25.120Z,101265.79
2018-09-05T04:36:53.161Z,101269.03
2018-09-05T04:39:21.200Z,101269.98
2018-09-05T04:41:49.255Z,101271.75
2018-09-05T04:44:17.288Z,101265.16
2018-09-05T04:46:45.322Z,101269.85
2018-09-05T04:49:13.484Z,101270.72
2018-09-05T04:51:41.647Z,101267.23
2018-09-05T04:54:09.672Z,101273.97
2018-09-05T04:56:37.699Z,101276.83
2018-09-05T04:59:06.792Z,101274.33
2018-09-05T05:01:35.037Z,101273.96
2018-09-05T05:04:03.023Z,101276.59
2018-09-05T05:06:31.081Z,101278.52
2018-09-05T05:08:59.135Z,101292.67
2018-09-05T05:11:27.158Z,101288.34
2018-09-05T05:13:55.378Z,101288.95
2018-09-05T05:16:23.368Z,101291.59
2018-09-05T05:18:51.671Z,101292.09
2018-09-05T05:21:19.736Z,101293.04
2018-09-05T05:23:47.756Z,101291.72
2018-09-05T05:26:15.865Z,101291.37
2018-09-05T05:28:44.215Z,101291.98
2018-09-05T05:31:12.315Z,101295.09
2018-09-05T05:33:40.344Z,101293.64
2018-09-05T05:36:08.528Z,101298.44
2018-09-05T05:38:36.558Z,101295.20
2018-09-05T05:41:04.800Z,101300.48
2018-09-05T05:43:33.029Z,101296.86
2018-09-05T05:46:01.064Z,101298.69
2018-09-05T05:48:29.090Z,101305.28
2018-09-05T05:50:57.299Z,101309.57
2018-09-05T05:53:25.318Z,101313.66
2018-09-05T05:55:53.337Z,101314.61
2018-09-05T05:58:21.376Z,101317.12
2018-09-05T06:00:49.546Z,101322.64
2018-09-05T06:03:17.484Z,101322.84
2018-09-05T06:05:45.524Z,101325.38
2018-09-05T06:08:25.535Z,101325.59
2018-09-05T06:10:53.584Z,101327.02
2018-09-05T06:13:21.624Z,101326.31
2018-09-05T06:15:49.657Z,101326.52
2018-09-05T06:18:17.950Z,101324.97
2018-09-05T06:20:45.972Z,101323.52
2018-09-05T06:23:14.016Z,101331.91
2018-09-05T06:25:42.054Z,101330.09
2018-09-05T06:28:10.074Z,101331.41
2018-09-05T06:30:38.412Z,101336.42
2018-09-05T06:33:06.299Z,101327.77
2018-09-05T06:35:34.441Z,101333.75
2018-09-05T06:38:02.478Z,101332.91
2018-09-05T06:40:30.520Z,101330.38
2018-09-05T06:42:58.597Z,101327.23
2018-09-05T06:45:26.696Z,101329.09
2018-09-05T06:47:54.656Z,101328.24
2018-09-05T06:50:22.718Z,101326.52
2018-09-05T06:52:50.938Z,101330.98
2018-09-05T06:55:18.972Z,101330.23
2018-09-05T06:57:47.025Z,101332.97
2018-09-05T07:00:17.334Z,101331.98
2018-09-05T07:02:45.366Z,101332.92
2018-09-05T07:05:13.409Z,101326.41
2018-09-05T07:07:41.445Z,101327.08
2018-09-05T07:10:09.515Z,101321.98
2018-09-05T07:12:37.529Z,101322.02
2018-09-05T07:15:06.159Z,101319.39
2018-09-05T07:17:34.245Z,101322.71
2018-09-05T07:20:02.253Z,101320.44
2018-09-05T07:22:30.289Z,101321.31
2018-09-05T07:24:58.694Z,101312.10
2018-09-05T07:27:26.832Z,101316.55
2018-09-05T07:29:54.871Z,101318.62
2018-09-05T07:32:22.889Z,101319.64
2018-09-05T07:34:50.932Z,101323.78
2018-09-05T07:37:19.121Z,101329.59
2018-09-05T07:39:47.149Z,101328.58
2018-09-05T07:42:15.196Z,101330.30
2018-09-05T07:44:43.376Z,101325.06
2018-09-05T07:47:11.404Z,101332.95
2018-09-05T07:49:39.428Z,101334.84
2018-09-05T07:52:07.507Z,101338.02
2018-09-05T07:54:35.518Z,101339.56
2018-09-05T07:57:03.543Z,101335.62
2018-09-05T07:59:31.599Z,101341.14
2018-09-05T08:01:59.628Z,101340.59
2018-09-05T08:04:27.670Z,101335.35
2018-09-05T08:09:22.834Z,101345.14
2018-09-05T08:11:50.928Z,101342.05
2018-09-05T08:14:18.908Z,101337.78
2018-09-05T08:16:47.207Z,101337.47
2018-09-05T08:19:15.240Z,101334.16
2018-09-05T08:21:43.295Z,101333.22
2018-09-05T08:24:11.511Z,101337.89
2018-09-05T08:26:39.540Z,101338.39
2018-09-05T08:29:07.624Z,101343.71
2018-09-05T08:31:35.632Z,101342.03
2018-09-05T08:34:03.657Z,101337.84
2018-09-05T08:36:31.877Z,101344.16
2018-09-05T08:38:59.847Z,101337.45
2018-09-05T08:41:27.840Z,101338.59
2018-09-05T08:43:55.871Z,101346.72
2018-09-05T08:46:24.084Z,101342.33
2018-09-05T08:48:52.100Z,101341.09
2018-09-05T08:51:20.312Z,101344.54
2018-09-05T08:53:49.114Z,101341.24
2018-09-05T08:56:17.235Z,101344.02
2018-09-05T08:58:45.545Z,101345.42
2018-09-05T09:01:13.525Z,101344.86
2018-09-05T09:03:41.819Z,101346.81
2018-09-05T09:06:09.892Z,101349.42
2018-09-05T09:08:37.906Z,101350.57
2018-09-05T09:11:05.952Z,101349.78
2018-09-05T09:13:33.998Z,101348.71
2018-09-05T09:16:02.031Z,101351.80
2018-09-05T09:18:30.064Z,101348.00
2018-09-05T09:20:58.104Z,101346.92
2018-09-05T09:23:26.134Z,101349.47
2018-09-05T09:25:54.165Z,101342.64
2018-09-05T09:28:22.391Z,101339.81
2018-09-05T09:30:50.396Z,101338.80
2018-09-05T09:33:18.432Z,101337.02
2018-09-05T09:35:46.636Z,101337.50
2018-09-05T09:38:14.676Z,101331.50
2018-09-05T09:40:42.716Z,101323.38
2018-09-05T09:43:10.756Z,101328.25
2018-09-05T09:45:38.813Z,101328.27
2018-09-05T09:48:07.024Z,101320.64
2018-09-05T09:50:35.061Z,101328.78
2018-09-05T09:53:03.086Z,101318.13
2018-09-05T09:55:31.144Z,101318.77
2018-09-05T09:57:59.164Z,101327.61
2018-09-05T10:00:32.520Z,101321.11
2018-09-05T10:03:06.072Z,101315.59
2018-09-05T10:05:39.483Z,101317.23
2018-09-05T10:08:10.224Z,101314.57
2018-09-05T10:10:43.679Z,101312.82
2018-09-05T10:13:12.919Z,101313.76
2018-09-05T10:15:46.172Z,101308.03
2018-09-05T10:18:19.506Z,101303.97
2018-09-05T10:20:54.283Z,101298.61
2018-09-05T10:23:22.305Z,101302.95
2018-09-05T10:25:50.364Z,101297.71
2018-09-05T10:28:18.552Z,101295.02
2018-09-05T10:30:46.719Z,101297.38
2018-09-05T10:33:14.747Z,101293.38
2018-09-05T10:35:42.952Z,101292.52
2018-09-05T10:38:10.973Z,101295.02
2018-09-05T10:40:39.006Z,101293.34
2018-09-05T10:43:07.061Z,101295.12
2018-09-05T10:45:35.084Z,101294.41
2018-09-05T10:48:03.163Z,101285.59
2018-09-05T10:50:31.240Z,101289.84
2018-09-05T10:52:59.366Z,101289.41
2018-09-05T10:55:27.399Z,101281.97
2018-09-05T10:57:55.436Z,101286.12
2018-09-05T11:00:23.487Z,101279.31
2018-09-05T11:02:51.528Z,101280.95
2018-09-05T11:05:25.923Z,101285.84
2018-09-05T11:07:54.124Z,101278.39
2018-09-05T11:10:22.195Z,101277.34
2018-09-05T11:12:50.200Z,101279.30
2018-09-05T11:15:18.252Z,101281.19
2018-09-05T11:17:46.284Z,101279.63
2018-09-05T11:20:14.433Z,101277.23
2018-09-05T11:22:42.491Z,101278.80
2018-09-05T11:25:10.527Z,101276.24
2018-09-05T11:27:38.611Z,101272.93
2018-09-05T11:30:06.679Z,101274.36
2018-09-05T11:32:35.266Z,101274.35
2018-09-05T11:35:03.305Z,101274.64
2018-09-05T11:37:32.275Z,101267.30
2018-09-05T11:40:00.345Z,101265.50
2018-09-05T11:42:28.380Z,101268.30
2018-09-05T11:44:56.421Z,101262.61
2018-09-05T11:47:24.459Z,101263.66
2018-09-05T11:49:52.516Z,101261.19
2018-09-05T11:52:21.004Z,101262.12
2018-09-05T11:54:49.047Z,101260.44
2018-09-05T11:57:17.181Z,101259.53
2018-09-05T11:59:47.362Z,101256.12
2018-09-05T12:02:15.836Z,101253.31
2018-09-05T12:04:44.051Z,101258.11
2018-09-05T12:07:12.528Z,101250.17
2018-09-05T12:09:40.568Z,101253.82
2018-09-05T12:12:08.653Z,101251.82
2018-09-05T12:14:36.643Z,101247.53
2018-09-05T12:17:50.363Z,101244.52
2018-09-05T12:20:18.404Z,101232.04
2018-09-05T12:22:46.472Z,101239.71
2018-09-05T12:25:14.554Z,101237.84
2018-09-05T12:27:42.739Z,101238.30
2018-09-05T12:30:10.755Z,101233.61
2018-09-05T12:32:38.788Z,101232.84
2018-09-05T12:35:07.197Z,101231.50
2018-09-05T12:37:35.230Z,101228.23
2018-09-05T12:40:03.277Z,101230.95
2018-09-05T12:42:31.346Z,101231.48
2018-09-05T12:44:59.417Z,101221.76
2018-09-05T12:47:27.465Z,101220.46
2018-09-05T12:49:55.957Z,101219.58
2018-09-05T12:52:24.013Z,101225.52
2018-09-05T12:54:52.036Z,101222.42
2018-09-05T12:57:20.076Z,101220.79
2018-09-05T12:59:48.307Z,101213.63
2018-09-05T13:02:16.364Z,101216.00
2018-09-05T13:04:44.391Z,101215.80
2018-09-05T13:07:12.459Z,101214.36
2018-09-05T13:09:40.679Z,101212.41
2018-09-05T13:12:08.708Z,101217.47
2018-09-05T13:14:36.917Z,101218.60
2018-09-05T13:17:05.197Z,101212.06
2018-09-05T13:19:33.233Z,101213.02
2018-09-05T13:22:01.265Z,101213.84
2018-09-05T13:24:29.290Z,101208.57
2018-09-05T13:26:57.420Z,101209.19
2018-09-05T13:29:25.419Z,101204.94
2018-09-05T13:31:53.606Z,101200.98
2018-09-05T13:34:21.832Z,101195.23
2018-09-05T13:36:49.938Z,101195.52
2018-09-05T13:39:17.968Z,101190.55
2018-09-05T13:41:46.084Z,101194.58
2018-09-05T13:44:14.139Z,101187.45
2018-09-05T13:46:42.344Z,101190.66
2018-09-05T13:49:10.395Z,101182.08
2018-09-05T13:51:38.638Z,101185.49
2018-09-05T13:54:07.511Z,101186.84
2018-09-05T13:56:35.573Z,101185.38
2018-09-05T13:59:05.032Z,101187.05
2018-09-05T14:01:33.076Z,101171.69
2018-09-05T14:04:01.120Z,101176.68
2018-09-05T14:06:29.164Z,101172.25
2018-09-05T14:08:57.254Z,101164.40
2018-09-05T14:11:25.335Z,101157.54
2018-09-05T14:13:53.428Z,101163.75
2018-09-05T14:16:21.472Z,101162.72
2018-09-05T14:18:49.688Z,101168.44
2018-09-05T14:21:17.712Z,101160.45
2018-09-05T14:23:46.308Z,101161.18
2018-09-05T14:26:14.342Z,101156.13
2018-09-05T14:28:42.392Z,101160.48
2018-09-05T14:31:10.428Z,101150.45
2018-09-05T14:33:38.522Z,101156.42
2018-09-05T14:36:06.558Z,101154.67
2018-09-05T14:38:34.927Z,101156.20
2018-09-05T14:41:02.964Z,101157.23
2018-09-05T14:43:31.181Z,101150.02
2018-09-05T14:45:59.210Z,101144.84
2018-09-05T14:48:27.275Z,101139.64
2018-09-05T14:50:55.322Z,101144.30
2018-09-05T14:53:23.487Z,101147.20
2018-09-05T14:55:51.502Z,101138.75
2018-09-05T14:58:19.560Z,101130.48
2018-09-05T15:00:47.748Z,101139.80
2018-09-05T15:03:15.797Z,101136.58
2018-09-05T15:05:43.989Z,101132.22
2018-09-05T15:08:14.248Z,101132.14
2018-09-05T15:10:42.892Z,101133.78
2018-09-05T15:13:10.937Z,101124.59
2018-09-05T15:15:39.025Z,101127.12
2018-09-05T15:18:07.228Z,101126.71
2018-09-05T15:20:35.262Z,101127.13
2018-09-05T15:23:03.304Z,101125.46
2018-09-05T15:25:31.498Z,101125.88
2018-09-05T15:27:59.752Z,101124.95
2018-09-05T15:30:27.805Z,101121.31
2018-09-05T15:32:56.512Z,101119.61
2018-09-05T15:35:24.548Z,101117.34
2018-09-05T15:37:52.586Z,101120.53
2018-09-05T15:40:20.622Z,101122.92
2018-09-05T15:42:49.088Z,101123.64
2018-09-05T15:45:17.125Z,101116.59
2018-09-05T15:47:45.197Z,101112.19
2018-09-05T15:50:13.253Z,101115.05
2018-09-05T15:52:41.357Z,101107.92
2018-09-05T15:55:09.688Z,101109.17
2018-09-05T15:57:37.731Z,101115.37
2018-09-05T16:02:54.092Z,101098.36
2018-09-05T16:05:22.110Z,101101.28
2018-09-05T16:07:50.349Z,101099.22
2018-09-05T16:10:18.411Z,101090.22
2018-09-05T16:12:46.378Z,101090.72
2018-09-05T16:15:14.418Z,101087.50
2018-09-05T16:17:42.425Z,101089.08
2018-09-05T16:20:10.704Z,101089.48
2018-09-05T16:22:38.714Z,101087.73
2018-09-05T16:25:06.864Z,101081.91
2018-09-05T16:27:34.920Z,101082.20
2018-09-05T16:30:03.145Z,101080.65
2018-09-05T16:32:31.353Z,101084.00
2018-09-05T16:35:03.341Z,101082.24
2018-09-05T16:37:31.408Z,101081.99
2018-09-05T16:39:59.409Z,101077.87
2018-09-05T16:42:27.465Z,101075.37
2018-09-05T16:44:56.664Z,101066.70
2018-09-05T16:47:24.765Z,101076.79
2018-09-05T16:49:52.996Z,101075.94
2018-09-05T16:52:25.224Z,101074.02
2018-09-05T16:54:53.389Z,101078.89
2018-09-05T16:57:21.416Z,101077.20
2018-09-05T16:59:49.695Z,101076.94
2018-09-05T17:02:17.714Z,101071.53
2018-09-05T17:04:45.737Z,101074.81
2018-09-05T17:07:14.189Z,101073.01
2018-09-05T17:09:42.219Z,101075.46
2018-09-05T17:12:10.398Z,101068.41
2018-09-05T17:14:38.412Z,101072.72
2018-09-05T17:17:06.465Z,101062.95
2018-09-05T17:19:34.486Z,101067.09
2018-09-05T17:22:02.980Z,101068.37
2018-09-05T17:24:30.999Z,101067.63
2018-09-05T17:26:59.868Z,101071.13
2018-09-05T17:29:27.896Z,101069.41
2018-09-05T17:31:55.924Z,101071.17
2018-09-05T17:34:23.936Z,101073.33
2018-09-05T17:36:51.959Z,101071.92
2018-09-05T17:39:20.034Z,101076.58
2018-09-05T17:41:48.114Z,101077.83
2018-09-05T17:44:16.173Z,101076.09
2018-09-05T17:46:44.184Z,101070.84
2018-09-05T17:49:12.208Z,101075.45
2018-09-05T17:51:40.216Z,101071.35
2018-09-05T17:54:08.402Z,101074.12
2018-09-05T17:56:36.841Z,101083.17
2018-09-05T17:59:05.869Z,101085.55
2018-09-05T18:01:34.082Z,101078.27
2018-09-05T18:04:02.323Z,101077.52
2018-09-05T18:06:30.364Z,101082.25
2018-09-05T18:08:58.384Z,101084.84
2018-09-05T18:11:27.417Z,101081.23
2018-09-05T18:13:55.450Z,101082.48
2018-09-05T18:16:23.469Z,101084.69
2018-09-05T18:18:51.490Z,101083.58
2018-09-05T18:21:19.717Z,101078.09
2018-09-05T18:23:47.798Z,101084.98
2018-09-05T18:26:15.827Z,101082.19
2018-09-05T18:28:43.895Z,101082.59
2018-09-05T18:31:12.031Z,101084.15
2018-09-05T18:33:40.063Z,101084.86
2018-09-05T18:36:08.334Z,101089.38
2018-09-05T18:38:36.354Z,101088.26
2018-09-05T18:41:04.933Z,101085.77
2018-09-05T18:43:32.935Z,101088.34
2018-09-05T18:46:00.967Z,101089.84
2018-09-05T18:48:29.097Z,101085.55
2018-09-05T18:50:57.109Z,101082.05
2018-09-05T18:53:25.164Z,101089.22
2018-09-05T18:55:53.354Z,101093.61
2018-09-05T18:58:21.697Z,101094.80
2018-09-05T19:00:49.726Z,101089.48
2018-09-05T19:03:17.751Z,101082.70
2018-09-05T19:05:45.904Z,101083.53
2018-09-05T19:08:13.993Z,101078.74
2018-09-05T19:10:42.096Z,101078.76
2018-09-05T19:13:10.129Z,101078.11
2018-09-05T19:15:38.164Z,101075.30
2018-09-05T19:18:06.188Z,101076.15
2018-09-05T19:20:34.354Z,101075.50
2018-09-05T19:23:03.011Z,101075.34
2018-09-05T19:25:31.044Z,101074.48
2018-09-05T19:27:59.080Z,101072.17
2018-09-05T19:30:27.134Z,101068.68
2018-09-05T19:32:55.180Z,101066.20
2018-09-05T19:35:24.189Z,101069.02
2018-09-05T19:37:52.373Z,101072.20
2018-09-05T19:40:20.393Z,101071.55
2018-09-05T19:42:48.417Z,101074.88
2018-09-05T19:45:17.497Z,101078.88
2018-09-05T19:47:45.517Z,101078.54
2018-09-05T19:50:14.326Z,101079.03
2018-09-05T19:52:42.280Z,101074.55
2018-09-05T19:55:10.349Z,101075.05
2018-09-05T19:57:38.390Z,101075.23
2018-09-05T20:00:06.393Z,101072.91
2018-09-05T20:02:34.608Z,101063.26
2018-09-05T20:07:30.677Z,101065.39
2018-09-05T20:09:59.573Z,101062.06
2018-09-05T20:12:27.585Z,101063.56
2018-09-05T20:14:55.880Z,101060.91
2018-09-05T20:17:23.902Z,101062.23
2018-09-05T20:19:51.912Z,101061.20
2018-09-05T20:22:19.929Z,101069.35
2018-09-05T20:24:47.956Z,101062.38
2018-09-05T20:27:16.223Z,101071.16
2018-09-05T20:29:44.248Z,101075.48
2018-09-05T20:32:12.263Z,101074.14
2018-09-05T20:34:40.288Z,101073.64
2018-09-05T20:37:08.336Z,101070.13
2018-09-05T20:39:36.344Z,101061.30
2018-09-05T20:42:04.971Z,101063.78
2018-09-05T20:44:32.993Z,101061.25
2018-09-05T20:47:01.011Z,101064.91
2018-09-05T20:49:29.200Z,101064.38
2018-09-05T20:51:57.216Z,101063.70
2018-09-05T20:54:25.251Z,101060.23
2018-09-05T20:56:53.870Z,101064.52
2018-09-05T20:59:21.888Z,101062.20
2018-09-05T21:01:49.904Z,101059.68
2018-09-05T21:04:18.401Z,101056.69
2018-09-05T21:06:46.422Z,101062.17
2018-09-05T21:09:14.453Z,101057.52
2018-09-05T21:11:42.608Z,101058.30
2018-09-05T21:14:10.769Z,101056.95
2018-09-05T21:16:38.812Z,101057.48
2018-09-05T21:19:07.021Z,101053.13
2018-09-05T21:21:35.207Z,101058.25
2018-09-05T21:24:03.224Z,101057.25
2018-09-05T21:26:31.364Z,101056.89
2018-09-05T21:28:59.373Z,101054.22
2018-09-05T21:31:27.428Z,101050.08
2018-09-05T21:33:55.716Z,101049.89
2018-09-05T21:36:23.884Z,101040.58
2018-09-05T21:38:51.910Z,101045.03
2018-09-05T21:41:20.088Z,101040.89
2018-09-05T21:43:48.120Z,101037.40
2018-09-05T21:46:16.142Z,101041.00
2018-09-05T21:48:44.191Z,101035.99
2018-09-05T21:51:12.267Z,101038.14
2018-09-05T21:53:40.413Z,101033.77
2018-09-05T21:56:08.517Z,101033.59
2018-09-05T21:58:36.594Z,101028.25
2018-09-05T22:01:04.856Z,101035.70
2018-09-05T22:03:33.008Z,101028.55
2018-09-05T22:06:01.020Z,101032.34
2018-09-05T22:08:29.125Z,101029.18
2018-09-05T22:11:01.340Z,101027.34
2018-09-05T22:13:29.636Z,101031.28
2018-09-05T22:15:57.668Z,101026.08
2018-09-05T22:18:25.747Z,101023.72
2018-09-05T22:20:53.840Z,101020.84
2018-09-05T22:23:22.184Z,101021.81
2018-09-05T22:25:50.208Z,101028.89
2018-09-05T22:28:18.245Z,101027.18
2018-09-05T22:30:46.268Z,101024.01
2018-09-05T22:33:14.280Z,101030.80
2018-09-05T22:35:42.303Z,101024.59
2018-09-05T22:38:10.311Z,101030.69
2018-09-05T22:40:43.888Z,101029.81
2018-09-05T22:43:23.428Z,101031.74
2018-09-05T22:46:02.919Z,101027.05
2018-09-05T22:50:53.904Z,101023.03
2018-09-05T22:53:38.635Z,101015.44
2018-09-05T22:58:24.181Z,101009.45
2018-09-05T23:01:18.314Z,101000.49
2018-09-05T23:03:55.489Z,101000.73
2018-09-05T23:08:43.357Z,101001.52
2018-09-05T23:13:26.771Z,101004.23
2018-09-05T23:16:06.652Z,100993.80
2018-09-05T23:18:46.159Z,100985.48
2018-09-05T23:21:22.340Z,100978.45
2018-09-05T23:23:56.444Z,100980.41
2018-09-05T23:26:24.836Z,100972.63
2018-09-05T23:28:52.999Z,100972.14
2018-09-05T23:31:21.240Z,100968.17
2018-09-05T23:33:49.569Z,100968.66
2018-09-05T23:36:17.731Z,100967.01
2018-09-05T23:38:45.828Z,100961.51
2018-09-05T23:41:13.964Z,100956.33
2018-09-05T23:43:42.028Z,100964.11
2018-09-05T23:46:10.052Z,100949.70
2018-09-05T23:48:38.327Z,100958.13
2018-09-05T23:51:06.724Z,100953.62
2018-09-05T23:53:34.970Z,100957.72
2018-09-05T23:56:03.207Z,100957.03
2018-09-05T23:58:31.220Z,100952.53
